TimeCDT,TemperatureF,Dew PointF,Humidity,Sea Level PressureIn,VisibilityMPH,Wind Direction,Wind SpeedMPH,Gust SpeedMPH,PrecipitationIn,Events,Conditions,WindDirDegrees,DateUTC
12:15 AM,73.4,57.2,57,29.90,7.0,North,-9999.0,-,N/A,,Mostly Cloudy,0,2013-06-18 05:15:00
12:35 AM,73.4,57.2,57,29.90,8.0,North,-9999.0,-,N/A,,Mostly Cloudy,0,2013-06-18 05:35:00
12:55 AM,73.4,57.2,57,29.90,8.0,North,-9999.0,-,N/A,,Mostly Cloudy,0,2013-06-18 05:55:00
1:15 AM,73.4,57.2,57,29.89,8.0,North,-9999.0,-,N/A,,Mostly Cloudy,0,2013-06-18 06:15:00
1:35 AM,73.4,57.2,57,29.90,7.0,North,-9999.0,-,N/A,,Mostly Cloudy,0,2013-06-18 06:35:00
1:55 AM,73.4,57.2,57,29.89,7.0,Calm,Calm,-,N/A,,Mostly Cloudy,0,2013-06-18 06:55:00
2:15 AM,73.4,57.2,57,29.90,7.0,Calm,Calm,-,N/A,,Mostly Cloudy,0,2013-06-18 07:15:00
2:35 AM,73.4,57.2,57,29.89,7.0,North,-9999.0,-,N/A,,Mostly Cloudy,0,2013-06-18 07:35:00
2:55 AM,73.4,57.2,57,29.89,6.0,North,-9999.0,-,N/A,,Haze,0,2013-06-18 07:55:00
3:15 AM,73.4,57.2,57,29.89,5.0,North,-9999.0,-,N/A,,Haze,0,2013-06-18 08:15:00
3:35 AM,73.4,55.4,53,29.88,5.0,North,-9999.0,-,N/A,,Haze,0,2013-06-18 08:35:00
3:55 AM,73.4,57.2,57,29.88,5.0,North,-9999.0,-,N/A,,Haze,0,2013-06-18 08:55:00
4:15 AM,73.4,57.2,57,29.87,5.0,North,-9999.0,-,N/A,,Haze,0,2013-06-18 09:15:00
4:35 AM,73.4,57.2,57,29.88,5.0,Calm,Calm,-,N/A,,Haze,0,2013-06-18 09:35:00
4:55 AM,73.4,57.2,57,29.88,5.0,North,-9999.0,-,N/A,,Haze,0,2013-06-18 09:55:00
5:15 AM,73.4,57.2,57,29.89,5.0,North,-9999.0,-,N/A,,Haze,0,2013-06-18 10:15:00
5:35 AM,73.4,57.2,57,29.89,5.0,North,-9999.0,-,N/A,,Haze,0,2013-06-18 10:35:00
5:55 AM,73.4,57.2,57,29.90,4.0,North,-9999.0,-,N/A,,Haze,0,2013-06-18 10:55:00
6:15 AM,73.4,57.2,57,29.91,5.0,North,-9999.0,-,N/A,,Haze,0,2013-06-18 11:15:00
6:35 AM,75.2,57.2,53,29.91,4.0,North,-9999.0,-,N/A,,Haze,0,2013-06-18 11:35:00
6:55 AM,75.2,59.0,57,29.92,5.0,North,-9999.0,-,N/A,,Haze,0,2013-06-18 11:55:00
7:15 AM,77.0,60.8,57,29.92,6.0,North,-9999.0,-,N/A,,Haze,0,2013-06-18 12:15:00
7:35 AM,78.8,60.8,54,29.93,7.0,North,-9999.0,-,N/A,,Clear,0,2013-06-18 12:35:00
7:55 AM,78.8,62.6,57,29.94,7.0,North,-9999.0,-,N/A,,Partly Cloudy,0,2013-06-18 12:55:00
8:15 AM,80.6,62.6,54,29.94,8.0,North,-9999.0,-,N/A,,Partly Cloudy,0,2013-06-18 13:15:00
8:35 AM,82.4,64.4,54,29.94,8.0,North,-9999.0,-,N/A,,Clear,0,2013-06-18 13:35:00
8:55 AM,82.4,64.4,54,29.95,8.0,North,-9999.0,-,N/A,,Mostly Cloudy,0,2013-06-18 13:55:00
9:15 AM,80.6,64.4,58,29.94,9.0,North,-9999.0,-,N/A,,Mostly Cloudy,0,2013-06-18 14:15:00
9:35 AM,80.6,64.4,58,29.94,8.0,North,-9999.0,-,N/A,,Mostly Cloudy,0,2013-06-18 14:35:00
9:55 AM,82.4,64.4,54,29.94,9.0,North,-9999.0,-,N/A,,Clear,0,2013-06-18 14:55:00
10:15 AM,84.2,66.2,55,29.94,9.0,North,-9999.0,-,N/A,,Partly Cloudy,0,2013-06-18 15:15:00
10:35 AM,84.2,66.2,55,29.94,9.0,North,-9999.0,-,N/A,,Partly Cloudy,0,2013-06-18 15:35:00
10:55 AM,84.2,66.2,55,29.94,9.0,North,-9999.0,-,N/A,,Scattered Clouds,0,2013-06-18 15:55:00
11:15 AM,84.2,68.0,58,29.94,9.0,North,-9999.0,-,N/A,,Scattered Clouds,0,2013-06-18 16:15:00
11:35 AM,87.8,69.8,55,29.94,9.0,North,-9999.0,-,N/A,,Scattered Clouds,0,2013-06-18 16:35:00
11:55 AM,84.2,66.2,55,29.94,8.0,North,-9999.0,-,N/A,,Scattered Clouds,0,2013-06-18 16:55:00
12:15 PM,78.8,62.6,57,29.94,4.0,North,-9999.0,-,0.03,,Haze,0,2013-06-18 17:15:00
12:35 PM,84.2,66.2,55,29.94,8.0,North,-9999.0,-,0.03,,Clear,0,2013-06-18 17:35:00
12:55 PM,84.2,68.0,58,29.94,8.0,North,-9999.0,-,0.03,,Partly Cloudy,0,2013-06-18 17:55:00
1:15 PM,84.2,68.0,58,29.94,9.0,North,-9999.0,-,N/A,,Partly Cloudy,0,2013-06-18 18:15:00
1:35 PM,86.0,68.0,55,29.95,8.0,North,-9999.0,-,N/A,,Partly Cloudy,0,2013-06-18 18:35:00
1:55 PM,84.2,66.2,55,29.95,8.0,North,-9999.0,-,N/A,,Scattered Clouds,0,2013-06-18 18:55:00
2:15 PM,84.2,68.0,58,29.95,9.0,North,-9999.0,-,N/A,,Partly Cloudy,0,2013-06-18 19:15:00
2:35 PM,84.2,66.2,55,29.94,9.0,North,-9999.0,-,N/A,,Scattered Clouds,0,2013-06-18 19:35:00
2:55 PM,84.2,66.2,55,29.94,8.0,North,-9999.0,-,N/A,,Mostly Cloudy,0,2013-06-18 19:55:00
3:15 PM,86.0,68.0,55,29.92,9.0,North,-9999.0,-,N/A,,Partly Cloudy,0,2013-06-18 20:15:00
3:35 PM,84.2,66.2,55,29.91,9.0,North,-9999.0,-,N/A,,Scattered Clouds,0,2013-06-18 20:35:00
3:55 PM,84.2,66.2,55,29.91,9.0,North,-9999.0,-,N/A,,Partly Cloudy,0,2013-06-18 20:55:00
4:15 PM,86.0,68.0,55,29.92,9.0,North,-9999.0,-,N/A,,Scattered Clouds,0,2013-06-18 21:15:00
4:35 PM,86.0,68.0,55,29.92,10.0,North,-9999.0,-,N/A,,Scattered Clouds,0,2013-06-18 21:35:00
4:55 PM,86.0,69.8,58,29.92,10.0,North,-9999.0,-,N/A,,Partly Cloudy,0,2013-06-18 21:55:00
5:15 PM,86.0,68.0,55,29.92,10.0,North,-9999.0,-,N/A,,Partly Cloudy,0,2013-06-18 22:15:00
5:35 PM,86.0,68.0,55,29.92,10.0,North,-9999.0,-,N/A,,Partly Cloudy,0,2013-06-18 22:35:00
5:55 PM,84.2,66.2,55,29.92,9.0,North,-9999.0,-,N/A,,Clear,0,2013-06-18 22:55:00
6:15 PM,84.2,66.2,55,29.92,9.0,North,-9999.0,-,N/A,,Clear,0,2013-06-18 23:15:00
6:35 PM,82.4,64.4,54,29.92,9.0,North,-9999.0,-,N/A,,Clear,0,2013-06-18 23:35:00
6:55 PM,82.4,64.4,54,29.92,10.0,North,-9999.0,-,N/A,,Clear,0,2013-06-18 23:55:00
7:15 PM,80.6,62.6,54,29.93,9.0,North,-9999.0,-,N/A,,Clear,0,2013-06-19 00:15:00
7:35 PM,78.8,62.6,57,29.93,9.0,North,-9999.0,-,N/A,,Light Drizzle,0,2013-06-19 00:35:00
7:55 PM,77.0,60.8,57,29.93,9.0,Calm,Calm,-,N/A,,Clear,0,2013-06-19 00:55:00
8:15 PM,75.2,57.2,53,29.93,9.0,Calm,Calm,-,N/A,,Clear,0,2013-06-19 01:15:00
8:35 PM,73.4,57.2,57,29.93,10.0,Calm,Calm,-,N/A,,Clear,0,2013-06-19 01:35:00
8:55 PM,73.4,57.2,57,29.94,9.0,Calm,Calm,-,N/A,,Clear,0,2013-06-19 01:55:00
9:15 PM,73.4,55.4,53,29.94,10.0,Calm,Calm,-,N/A,,Clear,0,2013-06-19 02:15:00
9:35 PM,73.4,55.4,53,29.95,8.0,Calm,Calm,-,N/A,,Clear,0,2013-06-19 02:35:00
9:55 PM,71.6,55.4,57,29.96,9.0,Calm,Calm,-,N/A,,Clear,0,2013-06-19 02:55:00
10:15 PM,71.6,55.4,57,29.97,7.0,Calm,Calm,-,N/A,,Clear,0,2013-06-19 03:15:00
10:35 PM,71.6,55.4,57,29.97,7.0,Calm,Calm,-,N/A,,Clear,0,2013-06-19 03:35:00
10:55 PM,71.6,55.4,57,29.97,5.0,Calm,Calm,-,N/A,,Haze,0,2013-06-19 03:55:00
11:15 PM,71.6,55.4,57,29.98,5.0,Calm,Calm,-,N/A,,Haze,0,2013-06-19 04:15:00
11:35 PM,71.6,55.4,57,29.98,5.0,Calm,Calm,-,N/A,,Haze,0,2013-06-19 04:35:00
11:55 PM,71.6,53.6,53,29.97,4.0,Calm,Calm,-,N/A,,Haze,0,2013-06-19 04:55:00